Terminal Aerodrome Forecast
Issued by NWS Charleston, WV

Current Version | Previous Version | Graphics & Text | Print | Product List | Glossary On
Versions: 1 2 3 4 5 6 7 8 9 10 11 12 13 14 15 16 17 18 19 20 21 22 23 24
982
FTUS41 KRLX 171138
TAFHTS
TAF
KHTS 171138Z 1712/1812 19008KT 5SM -SHRA BR OVC040
     FM171400 20009G15KT P6SM -SHRA OVC040
     FM171600 21011G18KT P6SM VCSH OVC025
     FM171800 22010G16KT 6SM -SHRA OVC025
     FM180000 26007KT P6SM BKN015=

USA.gov is the U.S. government's official web portal to all federal, state and local government web resources and services.